National Weather Service Raw Text Product

Displaying AFOS PIL: TAFALO Received: 2018-12-06 05:21 UTC


048 
FTUS43 KDMX 060521
TAFALO
TAF
KALO 060521Z 0606/0706 31008KT P6SM BKN150
     FM060800 33009KT P6SM OVC015
     FM061800 32011KT P6SM SCT030
     FM070100 31007KT P6SM SCT250=